Terminal Aerodrome Forecast
Issued by NWS Cleveland, OH

Home | Current Version | Previous Version | Graphics & Text | Print | Product List | Glossary On
Versions: 1 2 3 4 5 6 7 8 9 10 11 12 13 14 15 16 17 18 19 20 21 22 23 24
359
FTUS41 KCLE 290909 AAB
TAFMFD
TAF AMD
KMFD 290909Z 2909/3006 03008KT P6SM SCT006 OVC010
     FM291400 04010KT P6SM SCT015 BKN020
     FM291700 04009KT P6SM SCT020 BKN200=

USA.gov is the U.S. government's official web portal to all federal, state and local government web resources and services.